sensor_id;sensor_type;location;lat;lon;timestamp;pressure;altitude;pressure_sealevel;temperature
48003;BMP280;33768;48.578;11.574;2023-07-31T00:02:32;96574.69;;;14.55
48003;BMP280;33768;48.578;11.574;2023-07-31T00:05:36;96583.25;;;14.51
48003;BMP280;33768;48.578;11.574;2023-07-31T00:08:40;96597.38;;;14.48
48003;BMP280;33768;48.578;11.574;2023-07-31T00:11:45;96590.94;;;14.45
48003;BMP280;33768;48.578;11.574;2023-07-31T00:14:49;96588.94;;;14.46
48003;BMP280;33768;48.578;11.574;2023-07-31T00:17:53;96595.91;;;14.47
48003;BMP280;33768;48.578;11.574;2023-07-31T00:20:57;96592.78;;;14.50
48003;BMP280;33768;48.578;11.574;2023-07-31T00:24:02;96582.72;;;14.53
48003;BMP280;33768;48.578;11.574;2023-07-31T00:27:06;96579.25;;;14.52
48003;BMP280;33768;48.578;11.574;2023-07-31T00:30:10;96593.53;;;14.51
48003;BMP280;33768;48.578;11.574;2023-07-31T00:33:14;96585.66;;;14.47
48003;BMP280;33768;48.578;11.574;2023-07-31T00:36:18;96586.75;;;14.44
48003;BMP280;33768;48.578;11.574;2023-07-31T00:39:22;96587.84;;;14.41
48003;BMP280;33768;48.578;11.574;2023-07-31T00:42:27;96580.34;;;14.42
48003;BMP280;33768;48.578;11.574;2023-07-31T00:45:32;96578.69;;;14.39
48003;BMP280;33768;48.578;11.574;2023-07-31T00:48:37;96581.03;;;14.35
48003;BMP280;33768;48.578;11.574;2023-07-31T00:51:41;96576.09;;;14.34
48003;BMP280;33768;48.578;11.574;2023-07-31T00:54:45;96583.78;;;14.35
48003;BMP280;33768;48.578;11.574;2023-07-31T00:57:50;96575.75;;;14.37
48003;BMP280;33768;48.578;11.574;2023-07-31T01:00:56;96578.50;;;14.44
48003;BMP280;33768;48.578;11.574;2023-07-31T01:04:00;96566.63;;;14.49
48003;BMP280;33768;48.578;11.574;2023-07-31T01:07:20;96564.78;;;14.52
48003;BMP280;33768;48.578;11.574;2023-07-31T01:10:27;96560.56;;;14.51
48003;BMP280;33768;48.578;11.574;2023-07-31T01:13:35;96568.28;;;14.52
48003;BMP280;33768;48.578;11.574;2023-07-31T01:16:39;96564.22;;;14.53
48003;BMP280;33768;48.578;11.574;2023-07-31T01:19:44;96571.22;;;14.54
48003;BMP280;33768;48.578;11.574;2023-07-31T01:23:00;96569.91;;;14.55
48003;BMP280;33768;48.578;11.574;2023-07-31T01:26:12;96565.88;;;14.56
48003;BMP280;33768;48.578;11.574;2023-07-31T01:32:47;96555.63;;;14.49
48003;BMP280;33768;48.578;11.574;2023-07-31T01:35:52;96550.84;;;14.42
48003;BMP280;33768;48.578;11.574;2023-07-31T01:39:00;96551.94;;;14.32
48003;BMP280;33768;48.578;11.574;2023-07-31T01:42:05;96542.97;;;14.24
48003;BMP280;33768;48.578;11.574;2023-07-31T01:45:09;96541.47;;;14.23
48003;BMP280;33768;48.578;11.574;2023-07-31T01:48:13;96548.25;;;14.22
48003;BMP280;33768;48.578;11.574;2023-07-31T01:51:17;96543.13;;;14.19
48003;BMP280;33768;48.578;11.574;2023-07-31T01:54:21;96553.19;;;14.16
48003;BMP280;33768;48.578;11.574;2023-07-31T01:57:26;96552.63;;;14.18
48003;BMP280;33768;48.578;11.574;2023-07-31T02:00:30;96555.94;;;14.16
48003;BMP280;33768;48.578;11.574;2023-07-31T02:03:34;96547.72;;;14.16
48003;BMP280;33768;48.578;11.574;2023-07-31T02:06:38;96540.53;;;14.13
48003;BMP280;33768;48.578;11.574;2023-07-31T02:09:43;96551.34;;;14.11
48003;BMP280;33768;48.578;11.574;2023-07-31T02:12:48;96548.78;;;14.06
48003;BMP280;33768;48.578;11.574;2023-07-31T02:15:52;96533.94;;;14.02
48003;BMP280;33768;48.578;11.574;2023-07-31T02:18:56;96535.03;;;13.99
48003;BMP280;33768;48.578;11.574;2023-07-31T02:22:01;96527.47;;;13.92
48003;BMP280;33768;48.578;11.574;2023-07-31T02:25:05;96533.69;;;13.92
48003;BMP280;33768;48.578;11.574;2023-07-31T02:28:09;96526.56;;;13.89
48003;BMP280;33768;48.578;11.574;2023-07-31T02:31:14;96522.88;;;13.87
48003;BMP280;33768;48.578;11.574;2023-07-31T02:34:18;96519.22;;;13.84
48003;BMP280;33768;48.578;11.574;2023-07-31T02:37:22;96502.19;;;13.78
48003;BMP280;33768;48.578;11.574;2023-07-31T02:40:27;96501.81;;;13.75
48003;BMP280;33768;48.578;11.574;2023-07-31T02:43:31;96504.72;;;13.69
48003;BMP280;33768;48.578;11.574;2023-07-31T02:46:35;96510.75;;;13.68
48003;BMP280;33768;48.578;11.574;2023-07-31T02:49:39;96513.28;;;13.66
48003;BMP280;33768;48.578;11.574;2023-07-31T02:52:43;96506.34;;;13.65
48003;BMP280;33768;48.578;11.574;2023-07-31T02:55:47;96504.16;;;13.63
48003;BMP280;33768;48.578;11.574;2023-07-31T02:58:51;96501.94;;;13.62
48003;BMP280;33768;48.578;11.574;2023-07-31T03:01:56;96487.13;;;13.57
48003;BMP280;33768;48.578;11.574;2023-07-31T03:05:00;96487.47;;;13.54
48003;BMP280;33768;48.578;11.574;2023-07-31T03:08:04;96489.50;;;13.53
48003;BMP280;33768;48.578;11.574;2023-07-31T03:11:08;96481.59;;;13.50
48003;BMP280;33768;48.578;11.574;2023-07-31T03:14:13;96493.50;;;13.52
48003;BMP280;33768;48.578;11.574;2023-07-31T03:17:17;96488.75;;;13.53
48003;BMP280;33768;48.578;11.574;2023-07-31T03:20:21;96489.81;;;13.50
48003;BMP280;33768;48.578;11.574;2023-07-31T03:23:25;96489.47;;;13.46
48003;BMP280;33768;48.578;11.574;2023-07-31T03:26:31;96494.19;;;13.45
48003;BMP280;33768;48.578;11.574;2023-07-31T03:29:36;96496.94;;;13.45
48003;BMP280;33768;48.578;11.574;2023-07-31T03:32:40;96501.16;;;13.46
48003;BMP280;33768;48.578;11.574;2023-07-31T03:35:45;96501.03;;;13.59
48003;BMP280;33768;48.578;11.574;2023-07-31T03:38:49;96499.13;;;13.97
48003;BMP280;33768;48.578;11.574;2023-07-31T03:41:53;96505.81;;;14.31
48003;BMP280;33768;48.578;11.574;2023-07-31T03:44:57;96498.31;;;14.53
48003;BMP280;33768;48.578;11.574;2023-07-31T03:48:02;96501.97;;;14.70
48003;BMP280;33768;48.578;11.574;2023-07-31T03:51:06;96495.94;;;14.72
48003;BMP280;33768;48.578;11.574;2023-07-31T03:54:10;96500.53;;;14.84
48003;BMP280;33768;48.578;11.574;2023-07-31T03:57:14;96503.81;;;14.90
48003;BMP280;33768;48.578;11.574;2023-07-31T04:00:19;96488.75;;;14.99
48003;BMP280;33768;48.578;11.574;2023-07-31T04:03:23;96495.91;;;15.09
48003;BMP280;33768;48.578;11.574;2023-07-31T04:06:26;96498.84;;;15.18
48003;BMP280;33768;48.578;11.574;2023-07-31T04:09:30;96498.44;;;15.29
48003;BMP280;33768;48.578;11.574;2023-07-31T04:12:35;96505.94;;;15.36
48003;BMP280;33768;48.578;11.574;2023-07-31T04:15:39;96491.81;;;15.39
48003;BMP280;33768;48.578;11.574;2023-07-31T04:18:43;96493.81;;;15.46
48003;BMP280;33768;48.578;11.574;2023-07-31T04:21:47;96491.41;;;15.50
48003;BMP280;33768;48.578;11.574;2023-07-31T04:24:51;96486.09;;;15.52
48003;BMP280;33768;48.578;11.574;2023-07-31T04:27:55;96488.47;;;15.56
48003;BMP280;33768;48.578;11.574;2023-07-31T04:31:00;96492.44;;;15.62
48003;BMP280;33768;48.578;11.574;2023-07-31T04:34:04;96487.31;;;15.66
48003;BMP280;33768;48.578;11.574;2023-07-31T04:37:08;96494.44;;;15.69
48003;BMP280;33768;48.578;11.574;2023-07-31T04:40:12;96491.16;;;15.70
48003;BMP280;33768;48.578;11.574;2023-07-31T04:43:16;96486.56;;;15.73
48003;BMP280;33768;48.578;11.574;2023-07-31T04:46:20;96482.50;;;15.74
48003;BMP280;33768;48.578;11.574;2023-07-31T04:49:25;96482.91;;;15.70
48003;BMP280;33768;48.578;11.574;2023-07-31T04:52:28;96478.59;;;15.45
48003;BMP280;33768;48.578;11.574;2023-07-31T04:55:32;96477.03;;;15.20
48003;BMP280;33768;48.578;11.574;2023-07-31T04:58:37;96474.09;;;15.03
48003;BMP280;33768;48.578;11.574;2023-07-31T05:01:41;96463.50;;;14.93
48003;BMP280;33768;48.578;11.574;2023-07-31T05:04:45;96472.28;;;14.91
48003;BMP280;33768;48.578;11.574;2023-07-31T05:07:49;96470.66;;;14.88
48003;BMP280;33768;48.578;11.574;2023-07-31T05:10:53;96469.72;;;14.93
48003;BMP280;33768;48.578;11.574;2023-07-31T05:13:57;96474.84;;;15.11
48003;BMP280;33768;48.578;11.574;2023-07-31T05:17:01;96472.75;;;15.34
48003;BMP280;33768;48.578;11.574;2023-07-31T05:20:06;96476.72;;;15.55
48003;BMP280;33768;48.578;11.574;2023-07-31T05:23:10;96483.06;;;15.72
48003;BMP280;33768;48.578;11.574;2023-07-31T05:26:14;96477.88;;;15.84
48003;BMP280;33768;48.578;11.574;2023-07-31T05:29:18;96483.31;;;15.98
48003;BMP280;33768;48.578;11.574;2023-07-31T05:32:22;96462.47;;;16.12
48003;BMP280;33768;48.578;11.574;2023-07-31T05:35:26;96478.25;;;16.19
48003;BMP280;33768;48.578;11.574;2023-07-31T05:38:30;96480.41;;;16.28
48003;BMP280;33768;48.578;11.574;2023-07-31T05:41:35;96479.00;;;16.44
48003;BMP280;33768;48.578;11.574;2023-07-31T05:44:39;96488.41;;;16.58
48003;BMP280;33768;48.578;11.574;2023-07-31T05:47:43;96482.56;;;16.78
48003;BMP280;33768;48.578;11.574;2023-07-31T05:50:47;96489.19;;;16.99
48003;BMP280;33768;48.578;11.574;2023-07-31T05:53:51;96479.13;;;17.11
48003;BMP280;33768;48.578;11.574;2023-07-31T05:56:55;96482.34;;;17.24
48003;BMP280;33768;48.578;11.574;2023-07-31T05:59:59;96476.16;;;17.33
48003;BMP280;33768;48.578;11.574;2023-07-31T06:03:03;96480.88;;;17.40
48003;BMP280;33768;48.578;11.574;2023-07-31T06:06:08;96478.34;;;17.51
48003;BMP280;33768;48.578;11.574;2023-07-31T06:09:12;96472.19;;;17.60
48003;BMP280;33768;48.578;11.574;2023-07-31T06:12:16;96472.25;;;17.69
48003;BMP280;33768;48.578;11.574;2023-07-31T06:15:22;96471.41;;;17.76
48003;BMP280;33768;48.578;11.574;2023-07-31T06:18:26;96465.97;;;17.85
48003;BMP280;33768;48.578;11.574;2023-07-31T06:21:31;96475.69;;;17.86
48003;BMP280;33768;48.578;11.574;2023-07-31T06:24:35;96476.47;;;17.96
48003;BMP280;33768;48.578;11.574;2023-07-31T06:27:39;96478.44;;;18.03
48003;BMP280;33768;48.578;11.574;2023-07-31T06:30:43;96480.69;;;18.14
48003;BMP280;33768;48.578;11.574;2023-07-31T06:33:51;96473.59;;;18.20
48003;BMP280;33768;48.578;11.574;2023-07-31T06:36:56;96474.38;;;18.30
48003;BMP280;33768;48.578;11.574;2023-07-31T06:40:00;96465.28;;;18.47
48003;BMP280;33768;48.578;11.574;2023-07-31T06:43:05;96464.88;;;18.59
48003;BMP280;33768;48.578;11.574;2023-07-31T06:46:12;96462.59;;;18.65
48003;BMP280;33768;48.578;11.574;2023-07-31T06:49:16;96461.31;;;18.76
48003;BMP280;33768;48.578;11.574;2023-07-31T06:52:20;96456.81;;;18.80
48003;BMP280;33768;48.578;11.574;2023-07-31T06:55:25;96460.34;;;18.90
48003;BMP280;33768;48.578;11.574;2023-07-31T06:58:29;96462.25;;;18.97
